x

Buoy E01 - Central Maine Shelf (44032) Wave Buoy

2:04 - Sat 18th Apr 2015 All times are EDT. -4 hours from GMT.

  • Sig Wave height 2.6ft
  • Peak Period 6s
  • Wind
    2mph, 4mph gusts
  • Sea Temp 39°f
  • Air Temp 41°f
  • Sea Pressure 1013mb
  • Buoy E01 - Central Maine Shelf
  • Buoy E01 - Central Maine Shelf

More Historic Weather Station data

Upgrade to MSW Pro to gain access to the past 30 days of data for over 8000 Wavebouys and Weather Stations around the globe.

Join Pro

Comparision Forecast

View Surf forecast
   
sam. 04/18 2:04 2.5ft 6s 2 4 mph 1013mb 39f 41f
1:04 2.5ft 6s 2 4 mph 1013.6mb 40f 42f
12:04 3ft 6s 2 4 mph 1014.1mb 40f 41f
11:04 3ft 6s  -  2 mph 1014.5mb 39f 42f
10:04 3.5ft 6s 2 4 mph 1014.1mb 39f 41f
9:04 3.5ft 8s 4 7 mph 1013.3mb 39f 41f
8:04 2.5ft 8s 4 7 mph 1013.6mb 39f 42f
7:04 2.5ft 11s 4
mph
1013.2mb 39f 43f
6:04 2.5ft 5s  -  2 mph 1012.5mb 39f 41f
5:04 2.5ft 11s 2
mph
1011.9mb 39f 43f
4:04 2.5ft 6s  -  2 mph 1011.5mb 39f 43f
3:04 2.5ft 11s 2 4 mph 1011.1mb 39f 45f
2:04 3ft 6s 2 4 mph 1010.2mb 39f 44f
1:04 3ft 6s 2 4 mph 1009.9mb 39f 44f
12:04 3ft 6s 2 4 mph 1009.6mb 39f 43f
ven. 04/17 11:04 3ft 6s  -  2 mph 1009.5mb 39f 44f
10:04 3.5ft 6s 2 4 mph 1009.6mb 39f 42f
9:04 3.5ft 6s  -  4 mph 1009.7mb 39f 45f
8:04 3.5ft 5s 2 4 mph 1008.9mb 40f 44f
7:04 4ft 5s 2 4 mph 1008.1mb 40f 44f
6:04 4.5ft 5s 2 4 mph 1008.1mb 40f 44f
5:04 5ft 6s 2 4 mph 1008.5mb 40f 44f
4:04 5ft 6s 4 7 mph 1008.9mb 40f 44f
3:04 5ft 5s 4 7 mph 1009.3mb 40f 44f
2:04 4.5ft 5s 4 9 mph 1010.4mb 40f 44f
1:04 4.5ft 5s 4 11 mph 1010.7mb 40f 43f
12:04 5ft 5s 4 9 mph 1012mb 39f 43f
11:04 5ft 5s 7 11 mph 1012.9mb 39f 43f
10:04 5.5ft 6s 4 11 mph 1013.3mb 39f 42f
9:04 6ft 6s 7 11 mph 1014.3mb 39f 43f
8:04 6ft 6s 7 13 mph 1015.1mb 39f 44f
7:04 6ft 6s 4 11 mph 1015.7mb 39f 43f
6:04 7ft 6s 7 11 mph 1016.3mb 39f 43f
5:04 6ft 6s 4 9 mph 1016.8mb 39f 43f
4:04 8ft 6s 9 13 mph 1017.2mb 39f 43f
3:04 6ft 5s 20 27 mph 1017.9mb 39f 43f
2:04 5.5ft 5s 18 22 mph 1019.3mb 39f 43f
1:04 5.5ft 5s 20 25 mph 1020.3mb 39f 43f
12:04 5ft 5s 18 22 mph 1021.4mb 39f 43f
jeu. 04/16 11:04 4.5ft 5s 20 25 mph 1022.3mb 39f 44f
10:04 4ft 5s 20 25 mph 1023mb 40f 44f
9:04 3.5ft 4s 16 18 mph 1024mb 40f 43f
8:04 2.5ft 4s 13 18 mph 1024.6mb 40f 42f
7:04 3.5ft 8s 16 18 mph 1024.9mb 40f 42f
6:04 2.5ft 4s 16 18 mph 1025.7mb 40f 42f
5:04 3.5ft 8s 16 18 mph 1026.5mb 40f 41f
4:04 3.5ft 8s 13 16 mph 1027.4mb 40f 41f
3:04 2ft 3s 13 16 mph 1028.3mb 40f 41f
2:04 3ft 11s 13 16 mph 1029.2mb 40f 41f
1:04 2.5ft 11s 9 11 mph 1029.4mb 40f 42f
12:04 2ft 11s 7 9 mph 1030.1mb 40f 42f
11:04 2.5ft 11s 4 7 mph 1030.9mb 41f 41f
10:04 2.5ft 11s 4
mph
1031.5mb 39f 44f
9:04 2.5ft 11s 2
mph
1031.1mb 39f 46f
8:04 3ft 8s 4
mph
1031.1mb 39f 41f
7:04 3.5ft 8s 7 9 mph 1030.2mb 39f 40f
6:04 3.5ft 8s 7 9 mph 1029.6mb 39f 40f
5:04 3ft 11s 9
mph
1028.8mb 39f 40f
4:04 3.5ft 8s 9
mph
1028.5mb 39f 41f
3:04 2.5ft 8s 9
mph
1028mb 39f 41f
2:04 2ft 11s 7 9 mph 1027.8mb 39f 41f
1:04 2.5ft 8s 7 9 mph 1027.7mb 39f 42f
12:04 2ft 8s 7 9 mph 1027.1mb 39f 43f
mer. 04/15 11:04 2.5ft 8s 9 11 mph 1026.4mb 40f 43f
10:04 2.5ft 8s 9 11 mph 1025.4mb 40f 45f
9:04 2.5ft 6s 7 9 mph 1024.1mb 39f 44f
8:04 2.5ft 6s 9
mph
1022.5mb 39f 44f
7:04 3ft 6s 7
mph
1021.2mb 40f 45f
6:04 3ft 6s 13 16 mph 1020.2mb 40f 48f
5:04 3ft 8s 11 13 mph 1019.6mb 40f 47f
4:04 2.5ft 6s 9 11 mph 1019mb 40f 48f
3:04 2.5ft 8s 9 11 mph 1018.4mb 40f 49f
2:04 2.5ft 4s 11 13 mph 1018.2mb 40f 48f
1:04 2.5ft 3s 13 16 mph 1017.9mb 40f 49f
12:04 2ft 6s 11 16 mph 1017.8mb 40f 49f
11:04 2.5ft 8s 7
mph
1017.9mb 40f 46f
10:04 2.5ft 6s 7 9 mph 1017.9mb 40f 45f
9:04 2.5ft 6s 4 7 mph 1017.6mb 40f 43f
8:04 2.5ft 6s 7 9 mph 1017.3mb 39f 41f
7:04 2.5ft 6s 7 9 mph 1017.1mb 39f 40f
6:04 2.5ft 6s 7
mph
1016.7mb 39f 40f
5:04 2ft 6s 4
mph
1016.5mb 39f 40f
4:04 2.5ft 6s 2 4 mph 1016.7mb 39f 41f
3:04 2ft 6s 4
mph
1017.3mb 39f 41f
2:04 2ft 5s 4 7 mph 1017.6mb 39f 42f
1:04 2.5ft 5s 4 7 mph 1017.9mb 39f 42f
12:04 2.5ft 5s 4 7 mph 1018.1mb 39f 42f
mar. 04/14 11:04 2.5ft 6s 7 9 mph 1017.9mb 40f 45f
10:04 2.5ft 6s 7
mph
1018mb 40f 44f
9:04 2.5ft 6s 7 9 mph 1017.8mb 40f 43f
8:04 3.5ft 6s 9 11 mph 1017mb 40f 43f